sensor_id;sensor_type;location;lat;lon;timestamp;pressure;altitude;pressure_sealevel;temperature;humidity
63652;BME280;49801;37.536;-122.304;2022-09-12T00:00:03;101428.50;;;28.91;23.39
63652;BME280;49801;37.536;-122.304;2022-09-12T00:00:29;101427.41;;;28.92;23.26
63652;BME280;49801;37.536;-122.304;2022-09-12T00:01:08;101428.50;;;28.96;23.31
63652;BME280;49801;37.536;-122.304;2022-09-12T00:01:34;101433.78;;;28.98;23.32
63652;BME280;49801;37.536;-122.304;2022-09-12T00:02:00;101436.59;;;28.88;23.62
63652;BME280;49801;37.536;-122.304;2022-09-12T00:02:26;101434.66;;;28.88;24.17
63652;BME280;49801;37.536;-122.304;2022-09-12T00:02:52;101435.75;;;28.92;24.15
63652;BME280;49801;37.536;-122.304;2022-09-12T00:03:18;101426.56;;;28.97;23.60
63652;BME280;49801;37.536;-122.304;2022-09-12T00:03:44;101431.56;;;29.00;23.63
63652;BME280;49801;37.536;-122.304;2022-09-12T00:04:10;101429.63;;;28.95;23.45
63652;BME280;49801;37.536;-122.304;2022-09-12T00:04:36;101438.00;;;28.90;23.47
63652;BME280;49801;37.536;-122.304;2022-09-12T00:05:02;101436.31;;;28.79;23.09
63652;BME280;49801;37.536;-122.304;2022-09-12T00:05:28;101435.22;;;28.80;22.94
63652;BME280;49801;37.536;-122.304;2022-09-12T00:05:55;101428.78;;;28.74;23.29
63652;BME280;49801;37.536;-122.304;2022-09-12T00:06:49;101431.00;;;28.88;23.56
63652;BME280;49801;37.536;-122.304;2022-09-12T00:07:15;101435.75;;;28.82;23.64
63652;BME280;49801;37.536;-122.304;2022-09-12T00:07:41;101433.53;;;28.84;23.26
63652;BME280;49801;37.536;-122.304;2022-09-12T00:08:06;101431.88;;;28.83;23.34
63652;BME280;49801;37.536;-122.304;2022-09-12T00:08:32;101432.97;;;28.87;23.93
63652;BME280;49801;37.536;-122.304;2022-09-12T00:08:59;101429.63;;;28.85;23.99
63652;BME280;49801;37.536;-122.304;2022-09-12T00:09:26;101434.66;;;28.88;24.08
63652;BME280;49801;37.536;-122.304;2022-09-12T00:09:51;101426.28;;;28.83;23.96
63652;BME280;49801;37.536;-122.304;2022-09-12T00:10:17;101429.09;;;28.83;24.12
63652;BME280;49801;37.536;-122.304;2022-09-12T00:10:43;101435.47;;;28.78;25.01
63652;BME280;49801;37.536;-122.304;2022-09-12T00:11:10;101424.88;;;28.75;25.99
63652;BME280;49801;37.536;-122.304;2022-09-12T00:11:36;101426.28;;;28.73;26.42
63652;BME280;49801;37.536;-122.304;2022-09-12T00:12:02;101429.09;;;28.73;26.89
63652;BME280;49801;37.536;-122.304;2022-09-12T00:12:28;101430.19;;;28.77;27.02
63652;BME280;49801;37.536;-122.304;2022-09-12T00:12:54;101428.50;;;28.71;26.49
63652;BME280;49801;37.536;-122.304;2022-09-12T00:13:19;101418.50;;;28.75;26.42
63652;BME280;49801;37.536;-122.304;2022-09-12T00:13:45;101421.81;;;28.77;26.47
63652;BME280;49801;37.536;-122.304;2022-09-12T00:14:13;101423.50;;;28.73;26.70
63652;BME280;49801;37.536;-122.304;2022-09-12T00:14:39;101416.25;;;28.77;27.17
63652;BME280;49801;37.536;-122.304;2022-09-12T00:15:04;101420.72;;;28.83;26.88
63652;BME280;49801;37.536;-122.304;2022-09-12T00:15:30;101411.78;;;28.91;27.12
63652;BME280;49801;37.536;-122.304;2022-09-12T00:15:56;101418.47;;;28.95;27.58
63652;BME280;49801;37.536;-122.304;2022-09-12T00:16:23;101412.91;;;28.95;28.38
63652;BME280;49801;37.536;-122.304;2022-09-12T00:16:49;101415.97;;;28.99;27.82
63652;BME280;49801;37.536;-122.304;2022-09-12T00:17:14;101413.44;;;29.03;27.73
63652;BME280;49801;37.536;-122.304;2022-09-12T00:17:40;101414.00;;;28.99;26.95
63652;BME280;49801;37.536;-122.304;2022-09-12T00:18:07;101416.78;;;28.94;26.95
63652;BME280;49801;37.536;-122.304;2022-09-12T00:18:33;101418.47;;;28.90;27.45
63652;BME280;49801;37.536;-122.304;2022-09-12T00:18:59;101423.50;;;28.88;28.73
63652;BME280;49801;37.536;-122.304;2022-09-12T00:19:26;101415.69;;;28.90;27.89
63652;BME280;49801;37.536;-122.304;2022-09-12T00:19:52;101419.03;;;28.82;27.74
63652;BME280;49801;37.536;-122.304;2022-09-12T00:20:17;101410.69;;;28.82;27.92
63652;BME280;49801;37.536;-122.304;2022-09-12T00:20:44;101420.13;;;28.86;27.94
63652;BME280;49801;37.536;-122.304;2022-09-12T00:21:11;101419.31;;;28.86;28.57
63652;BME280;49801;37.536;-122.304;2022-09-12T00:21:38;101412.38;;;28.83;28.72
63652;BME280;49801;37.536;-122.304;2022-09-12T00:22:04;101419.03;;;28.82;29.48
63652;BME280;49801;37.536;-122.304;2022-09-12T00:22:30;101415.69;;;28.80;29.52
63652;BME280;49801;37.536;-122.304;2022-09-12T00:22:56;101421.28;;;28.80;29.76
63652;BME280;49801;37.536;-122.304;2022-09-12T00:23:21;101413.47;;;28.82;29.85
63652;BME280;49801;37.536;-122.304;2022-09-12T00:23:48;101416.53;;;28.80;29.57
63652;BME280;49801;37.536;-122.304;2022-09-12T00:24:14;101414.56;;;28.76;28.81
63652;BME280;49801;37.536;-122.304;2022-09-12T00:24:39;101421.56;;;28.63;28.74
63652;BME280;49801;37.536;-122.304;2022-09-12T00:25:05;101417.94;;;28.57;28.82
63652;BME280;49801;37.536;-122.304;2022-09-12T00:25:31;101416.78;;;28.53;29.09
63652;BME280;49801;37.536;-122.304;2022-09-12T00:25:57;101413.97;;;28.43;29.12
63652;BME280;49801;37.536;-122.304;2022-09-12T00:26:23;101415.09;;;28.42;28.95
63652;BME280;49801;37.536;-122.304;2022-09-12T00:26:49;101416.19;;;28.31;29.20
63652;BME280;49801;37.536;-122.304;2022-09-12T00:27:14;101420.38;;;28.23;29.28
63652;BME280;49801;37.536;-122.304;2022-09-12T00:27:40;101417.00;;;28.21;29.94
63652;BME280;49801;37.536;-122.304;2022-09-12T00:28:06;101420.06;;;28.19;29.32
63652;BME280;49801;37.536;-122.304;2022-09-12T00:28:32;101417.84;;;28.16;29.34
63652;BME280;49801;37.536;-122.304;2022-09-12T00:28:58;101422.56;;;28.16;28.97
63652;BME280;49801;37.536;-122.304;2022-09-12T00:29:24;101418.94;;;28.10;28.20
63652;BME280;49801;37.536;-122.304;2022-09-12T00:29:50;101419.47;;;28.07;28.52
63652;BME280;49801;37.536;-122.304;2022-09-12T00:30:15;101426.19;;;28.11;28.23
63652;BME280;49801;37.536;-122.304;2022-09-12T00:30:42;101421.72;;;28.15;28.49
63652;BME280;49801;37.536;-122.304;2022-09-12T00:31:09;101419.50;;;28.17;28.69
63652;BME280;49801;37.536;-122.304;2022-09-12T00:31:35;101419.22;;;28.19;29.05
63652;BME280;49801;37.536;-122.304;2022-09-12T00:32:01;101424.53;;;28.20;29.42
63652;BME280;49801;37.536;-122.304;2022-09-12T00:32:26;101426.47;;;28.15;29.28
63652;BME280;49801;37.536;-122.304;2022-09-12T00:32:52;101419.44;;;27.97;29.40
63652;BME280;49801;37.536;-122.304;2022-09-12T00:33:19;101420.47;;;27.75;30.52
63652;BME280;49801;37.536;-122.304;2022-09-12T00:33:44;101423.25;;;27.80;30.20
63652;BME280;49801;37.536;-122.304;2022-09-12T00:34:11;101430.47;;;27.81;30.86
63652;BME280;49801;37.536;-122.304;2022-09-12T00:34:37;101420.72;;;27.74;30.58
63652;BME280;49801;37.536;-122.304;2022-09-12T00:35:02;101425.94;;;27.60;30.72
63652;BME280;49801;37.536;-122.304;2022-09-12T00:35:28;101421.16;;;27.50;30.92
63652;BME280;49801;37.536;-122.304;2022-09-12T00:35:54;101425.94;;;27.55;31.43
63652;BME280;49801;37.536;-122.304;2022-09-12T00:36:21;101428.41;;;27.51;31.53
63652;BME280;49801;37.536;-122.304;2022-09-12T00:36:47;101426.41;;;27.41;31.61
63652;BME280;49801;37.536;-122.304;2022-09-12T00:37:13;101420.28;;;27.39;32.00
63652;BME280;49801;37.536;-122.304;2022-09-12T00:37:39;101426.97;;;27.43;31.92
63652;BME280;49801;37.536;-122.304;2022-09-12T00:38:05;101432.00;;;27.46;32.13
63652;BME280;49801;37.536;-122.304;2022-09-12T00:38:30;101435.34;;;27.48;31.92
63652;BME280;49801;37.536;-122.304;2022-09-12T00:38:56;101428.66;;;27.44;31.95
63652;BME280;49801;37.536;-122.304;2022-09-12T00:39:22;101425.03;;;27.44;31.69
63652;BME280;49801;37.536;-122.304;2022-09-12T00:39:48;101437.78;;;27.40;31.95
63652;BME280;49801;37.536;-122.304;2022-09-12T00:40:14;101427.19;;;27.37;31.61
63652;BME280;49801;37.536;-122.304;2022-09-12T00:40:41;101429.41;;;27.35;31.25
63652;BME280;49801;37.536;-122.304;2022-09-12T00:41:09;101426.38;;;27.36;31.52
63652;BME280;49801;37.536;-122.304;2022-09-12T00:41:38;101426.41;;;27.41;31.83
63652;BME280;49801;37.536;-122.304;2022-09-12T00:42:04;101426.06;;;27.33;32.11
63652;BME280;49801;37.536;-122.304;2022-09-12T00:42:30;101425.78;;;27.29;31.92
63652;BME280;49801;37.536;-122.304;2022-09-12T00:42:55;101427.97;;;27.27;31.74
63652;BME280;49801;37.536;-122.304;2022-09-12T00:44:46;101431.69;;;27.05;32.28
63652;BME280;49801;37.536;-122.304;2022-09-12T00:45:30;101431.69;;;27.05;32.04
63652;BME280;49801;37.536;-122.304;2022-09-12T00:45:56;101432.31;;;27.12;32.29
63652;BME280;49801;37.536;-122.304;2022-09-12T00:47:28;101433.53;;;26.89;33.26
63652;BME280;49801;37.536;-122.304;2022-09-12T00:47:56;101431.59;;;26.90;32.90
63652;BME280;49801;37.536;-122.304;2022-09-12T00:48:25;101434.38;;;26.90;32.90
63652;BME280;49801;37.536;-122.304;2022-09-12T00:50:06;101433.88;;;26.98;33.25
63652;BME280;49801;37.536;-122.304;2022-09-12T00:50:33;101431.09;;;26.98;33.55
63652;BME280;49801;37.536;-122.304;2022-09-12T00:50:59;101431.00;;;26.88;33.28
63652;BME280;49801;37.536;-122.304;2022-09-12T00:51:25;101430.41;;;26.81;33.02
63652;BME280;49801;37.536;-122.304;2022-09-12T00:51:54;101430.59;;;26.69;33.35
63652;BME280;49801;37.536;-122.304;2022-09-12T00:52:24;101434.06;;;26.59;33.15
63652;BME280;49801;37.536;-122.304;2022-09-12T00:52:53;101433.25;;;26.58;33.40
63652;BME280;49801;37.536;-122.304;2022-09-12T00:53:21;101430.19;;;26.60;33.20
63652;BME280;49801;37.536;-122.304;2022-09-12T00:53:47;101432.50;;;26.63;33.30
63652;BME280;49801;37.536;-122.304;2022-09-12T00:54:18;101433.56;;;26.62;33.53
63652;BME280;49801;37.536;-122.304;2022-09-12T00:54:48;101437.09;;;26.57;33.54
63652;BME280;49801;37.536;-122.304;2022-09-12T00:55:21;101435.13;;;26.53;33.54
63652;BME280;49801;37.536;-122.304;2022-09-12T00:55:47;101438.75;;;26.53;33.91
63652;BME280;49801;37.536;-122.304;2022-09-12T00:56:14;101431.81;;;26.56;33.89
63652;BME280;49801;37.536;-122.304;2022-09-12T00:56:42;101435.75;;;26.60;33.95
63652;BME280;49801;37.536;-122.304;2022-09-12T00:57:09;101437.50;;;26.66;34.16
63652;BME280;49801;37.536;-122.304;2022-09-12T00:57:41;101437.50;;;26.66;34.14
63652;BME280;49801;37.536;-122.304;2022-09-12T00:58:19;101433.06;;;26.65;34.44
63652;BME280;49801;37.536;-122.304;2022-09-12T00:58:48;101437.66;;;26.54;34.77
63652;BME280;49801;37.536;-122.304;2022-09-12T00:59:26;101435.09;;;26.48;34.75
63652;BME280;49801;37.536;-122.304;2022-09-12T00:59:58;101436.91;;;26.37;34.77
63652;BME280;49801;37.536;-122.304;2022-09-12T01:00:26;101434.38;;;26.35;34.93
63652;BME280;49801;37.536;-122.304;2022-09-12T01:00:52;101438.78;;;26.31;35.23
63652;BME280;49801;37.536;-122.304;2022-09-12T01:01:18;101443.72;;;26.24;35.16
63652;BME280;49801;37.536;-122.304;2022-09-12T01:01:44;101438.13;;;26.19;35.26
63652;BME280;49801;37.536;-122.304;2022-09-12T01:02:11;101439.75;;;26.15;35.27
63652;BME280;49801;37.536;-122.304;2022-09-12T01:02:37;101429.66;;;26.09;35.54
63652;BME280;49801;37.536;-122.304;2022-09-12T01:03:10;101439.41;;;26.11;35.49
63652;BME280;49801;37.536;-122.304;2022-09-12T01:03:38;101441.34;;;26.11;35.50
63652;BME280;49801;37.536;-122.304;2022-09-12T01:04:04;101408.34;;;25.92;35.23
63652;BME280;49801;37.536;-122.304;2022-09-12T01:04:30;101441.34;;;26.11;35.63
63652;BME280;49801;37.536;-122.304;2022-09-12T01:04:56;101441.91;;;26.13;35.57
63652;BME280;49801;37.536;-122.304;2022-09-12T01:05:22;101440.25;;;26.12;35.60
63652;BME280;49801;37.536;-122.304;2022-09-12T01:06:28;101441.28;;;26.06;35.90
63652;BME280;49801;37.536;-122.304;2022-09-12T01:06:56;101443.56;;;26.09;35.75
63652;BME280;49801;37.536;-122.304;2022-09-12T01:07:23;101442.66;;;26.03;36.09
63652;BME280;49801;37.536;-122.304;2022-09-12T01:07:49;101442.34;;;25.99;36.40
63652;BME280;49801;37.536;-122.304;2022-09-12T01:08:16;101442.84;;;25.96;36.27
63652;BME280;49801;37.536;-122.304;2022-09-12T01:08:42;101444.00;;;26.00;36.38
63652;BME280;49801;37.536;-122.304;2022-09-12T01:09:08;101440.66;;;25.98;36.63
63652;BME280;49801;37.536;-122.304;2022-09-12T01:09:36;101440.81;;;25.92;36.75
63652;BME280;49801;37.536;-122.304;2022-09-12T01:10:03;101451.59;;;25.88;36.87
63652;BME280;49801;37.536;-122.304;2022-09-12T01:10:30;101453.78;;;25.86;36.80
63652;BME280;49801;37.536;-122.304;2022-09-12T01:10:56;101451.59;;;25.88;36.88
63652;BME280;49801;37.536;-122.304;2022-09-12T01:11:22;101447.72;;;25.89;36.87
63652;BME280;49801;37.536;-122.304;2022-09-12T01:11:48;101452.16;;;25.90;36.82
63652;BME280;49801;37.536;-122.304;2022-09-12T01:12:15;101462.69;;;25.88;37.04
63652;BME280;49801;37.536;-122.304;2022-09-12T01:12:41;101454.50;;;25.76;37.33
63652;BME280;49801;37.536;-122.304;2022-09-12T01:13:08;101453.09;;;25.74;37.25
63652;BME280;49801;37.536;-122.304;2022-09-12T01:13:34;101455.31;;;25.77;37.41
63652;BME280;49801;37.536;-122.304;2022-09-12T01:14:00;101460.03;;;25.76;37.33
63652;BME280;49801;37.536;-122.304;2022-09-12T01:14:28;101450.88;;;25.76;37.00
63652;BME280;49801;37.536;-122.304;2022-09-12T01:14:54;101450.31;;;25.74;37.18
63652;BME280;49801;37.536;-122.304;2022-09-12T01:15:20;101449.78;;;25.77;37.18
63652;BME280;49801;37.536;-122.304;2022-09-12T01:15:46;101452.63;;;25.82;37.08
63652;BME280;49801;37.536;-122.304;2022-09-12T01:16:11;101449.78;;;25.77;37.26
63652;BME280;49801;37.536;-122.304;2022-09-12T01:16:37;101453.03;;;25.69;37.49
63652;BME280;49801;37.536;-122.304;2022-09-12T01:17:03;101446.41;;;25.75;37.35
63652;BME280;49801;37.536;-122.304;2022-09-12T01:17:30;101458.09;;;25.77;37.38
63652;BME280;49801;37.536;-122.304;2022-09-12T01:20:41;101444.16;;;25.50;38.14
63652;BME280;49801;37.536;-122.304;2022-09-12T01:22:03;101446.94;;;25.50;38.20
63652;BME280;49801;37.536;-122.304;2022-09-12T01:23:00;101445.19;;;25.43;38.40
63652;BME280;49801;37.536;-122.304;2022-09-12T01:24:11;101448.78;;;25.44;38.71
63652;BME280;49801;37.536;-122.304;2022-09-12T01:25:27;101447.69;;;25.45;38.56
63652;BME280;49801;37.536;-122.304;2022-09-12T01:25:30;101445.50;;;25.47;38.72
63652;BME280;49801;37.536;-122.304;2022-09-12T01:26:52;101451.28;;;25.45;38.63
63652;BME280;49801;37.536;-122.304;2022-09-12T01:28:07;101444.34;;;25.43;39.04
63652;BME280;49801;37.536;-122.304;2022-09-12T01:29:28;101452.19;;;25.51;38.60
63652;BME280;49801;37.536;-122.304;2022-09-12T01:30:01;101455.19;;;25.44;38.58
63652;BME280;49801;37.536;-122.304;2022-09-12T01:31:32;101445.84;;;25.34;38.75
63652;BME280;49801;37.536;-122.304;2022-09-12T01:32:12;101451.94;;;25.31;39.02
63652;BME280;49801;37.536;-122.304;2022-09-12T01:34:52;101446.88;;;25.11;39.03
63652;BME280;49801;37.536;-122.304;2022-09-12T01:36:10;101457.78;;;25.17;38.73
63652;BME280;49801;37.536;-122.304;2022-09-12T01:39:03;101449.91;;;24.92;40.39
63652;BME280;49801;37.536;-122.304;2022-09-12T01:41:47;101450.91;;;24.69;40.85
63652;BME280;49801;37.536;-122.304;2022-09-12T01:43:00;101453.50;;;24.59;41.07
63652;BME280;49801;37.536;-122.304;2022-09-12T01:44:13;101449.81;;;24.41;41.84
63652;BME280;49801;37.536;-122.304;2022-09-12T01:44:46;101454.16;;;24.37;41.97
63652;BME280;49801;37.536;-122.304;2022-09-12T01:45:34;101456.09;;;24.37;42.33
63652;BME280;49801;37.536;-122.304;2022-09-12T01:46:50;101465.03;;;24.27;41.93
63652;BME280;49801;37.536;-122.304;2022-09-12T01:47:21;101459.97;;;24.24;42.10
63652;BME280;49801;37.536;-122.304;2022-09-12T01:47:55;101462.16;;;24.22;42.32
63652;BME280;49801;37.536;-122.304;2022-09-12T01:48:29;101459.63;;;24.20;42.21
63652;BME280;49801;37.536;-122.304;2022-09-12T01:49:57;101464.28;;;24.03;42.73
63652;BME280;49801;37.536;-122.304;2022-09-12T01:50:27;101456.56;;;24.05;42.58
63652;BME280;49801;37.536;-122.304;2022-09-12T01:51:05;101462.97;;;24.05;42.55
63652;BME280;49801;37.536;-122.304;2022-09-12T01:51:40;101457.81;;;23.97;42.54
63652;BME280;49801;37.536;-122.304;2022-09-12T01:53:26;101464.91;;;23.93;42.66
63652;BME280;49801;37.536;-122.304;2022-09-12T01:53:58;101462.88;;;23.88;42.81
63652;BME280;49801;37.536;-122.304;2022-09-12T01:54:29;101460.34;;;23.87;42.60
63652;BME280;49801;37.536;-122.304;2022-09-12T01:55:15;101464.69;;;23.83;42.61
63652;BME280;49801;37.536;-122.304;2022-09-12T01:55:44;101466.47;;;23.77;42.58
63652;BME280;49801;37.536;-122.304;2022-09-12T01:56:23;101457.94;;;23.78;42.61
63652;BME280;49801;37.536;-122.304;2022-09-12T01:56:51;101467.31;;;23.77;43.05
63652;BME280;49801;37.536;-122.304;2022-09-12T01:57:38;101466.13;;;23.73;43.19
63652;BME280;49801;37.536;-122.304;2022-09-12T01:58:11;101464.44;;;23.72;43.31
63652;BME280;49801;37.536;-122.304;2022-09-12T01:58:40;101462.28;;;23.74;43.03
63652;BME280;49801;37.536;-122.304;2022-09-12T01:59:09;101466.59;;;23.70;43.07
63652;BME280;49801;37.536;-122.304;2022-09-12T01:59:39;101467.19;;;23.72;43.19
63652;BME280;49801;37.536;-122.304;2022-09-12T02:00:10;101463.84;;;23.70;43.43
63652;BME280;49801;37.536;-122.304;2022-09-12T02:00:38;101465.41;;;23.66;43.28
63652;BME280;49801;37.536;-122.304;2022-09-12T02:01:11;101478.16;;;23.67;43.38
63652;BME280;49801;37.536;-122.304;2022-09-12T02:01:50;101470.47;;;23.69;43.26
63652;BME280;49801;37.536;-122.304;2022-09-12T02:02:25;101471.53;;;23.56;43.78
63652;BME280;49801;37.536;-122.304;2022-09-12T02:02:55;101465.66;;;23.53;43.82
63652;BME280;49801;37.536;-122.304;2022-09-12T02:03:30;101466.25;;;23.55;43.85
63652;BME280;49801;37.536;-122.304;2022-09-12T02:04:55;101467.00;;;23.38;44.55
63652;BME280;49801;37.536;-122.304;2022-09-12T02:05:43;101468.44;;;23.41;44.49
63652;BME280;49801;37.536;-122.304;2022-09-12T02:06:14;101474.19;;;23.39;44.79
63652;BME280;49801;37.536;-122.304;2022-09-12T02:06:49;101481.78;;;23.32;45.22
63652;BME280;49801;37.536;-122.304;2022-09-12T02:07:22;101483.47;;;23.33;44.92
63652;BME280;49801;37.536;-122.304;2022-09-12T02:07:56;101476.72;;;23.29;45.10
63652;BME280;49801;37.536;-122.304;2022-09-12T02:08:27;101481.19;;;23.30;45.33
63652;BME280;49801;37.536;-122.304;2022-09-12T02:09:04;101477.81;;;23.28;45.27
63652;BME280;49801;37.536;-122.304;2022-09-12T02:09:37;101477.22;;;23.26;45.35
63652;BME280;49801;37.536;-122.304;2022-09-12T02:10:06;101482.97;;;23.13;45.99
63652;BME280;49801;37.536;-122.304;2022-09-12T02:10:36;101480.09;;;23.08;46.27
63652;BME280;49801;37.536;-122.304;2022-09-12T02:11:07;101484.28;;;23.10;46.35
63652;BME280;49801;37.536;-122.304;2022-09-12T02:11:34;101484.22;;;22.98;46.73
63652;BME280;49801;37.536;-122.304;2022-09-12T02:12:03;101483.63;;;22.96;46.61
63652;BME280;49801;37.536;-122.304;2022-09-12T02:12:30;101482.31;;;22.99;46.59
63652;BME280;49801;37.536;-122.304;2022-09-12T02:13:03;101480.88;;;22.96;46.73
63652;BME280;49801;37.536;-122.304;2022-09-12T02:13:43;101478.69;;;22.98;46.75
63652;BME280;49801;37.536;-122.304;2022-09-12T02:14:11;101476.91;;;22.92;47.18
63652;BME280;49801;37.536;-122.304;2022-09-12T02:14:42;101479.31;;;22.89;47.09
63652;BME280;49801;37.536;-122.304;2022-09-12T02:15:09;101484.47;;;22.85;47.06
63652;BME280;49801;37.536;-122.304;2022-09-12T02:15:39;101486.59;;;22.83;47.30
63652;BME280;49801;37.536;-122.304;2022-09-12T02:16:10;101486.97;;;22.75;47.24
63652;BME280;49801;37.536;-122.304;2022-09-12T02:17:20;101481.91;;;22.72;47.45
63652;BME280;49801;37.536;-122.304;2022-09-12T02:17:26;101484.53;;;22.66;48.00
63652;BME280;49801;37.536;-122.304;2022-09-12T02:17:55;101487.44;;;22.72;47.46
63652;BME280;49801;37.536;-122.304;2022-09-12T02:18:22;101490.03;;;22.66;47.81
63652;BME280;49801;37.536;-122.304;2022-09-12T02:18:52;101486.91;;;22.63;47.93
63652;BME280;49801;37.536;-122.304;2022-09-12T02:19:22;101488.72;;;22.69;47.60
63652;BME280;49801;37.536;-122.304;2022-09-12T02:19:48;101485.13;;;22.69;48.06
63652;BME280;49801;37.536;-122.304;2022-09-12T02:20:26;101488.34;;;22.65;48.01
63652;BME280;49801;37.536;-122.304;2022-09-12T02:20:53;101489.91;;;22.61;48.11
63652;BME280;49801;37.536;-122.304;2022-09-12T02:21:21;101485.47;;;22.60;48.34
63652;BME280;49801;37.536;-122.304;2022-09-12T02:21:54;101490.25;;;22.53;48.66
63652;BME280;49801;37.536;-122.304;2022-09-12T02:22:20;101483.53;;;22.49;48.85
63652;BME280;49801;37.536;-122.304;2022-09-12T02:22:47;101487.81;;;22.45;48.71
63652;BME280;49801;37.536;-122.304;2022-09-12T02:23:19;101501.00;;;22.43;48.61
63652;BME280;49801;37.536;-122.304;2022-09-12T02:23:47;101485.84;;;22.34;48.90
63652;BME280;49801;37.536;-122.304;2022-09-12T02:24:15;101498.19;;;22.31;49.09
63652;BME280;49801;37.536;-122.304;2022-09-12T02:24:42;101491.84;;;22.31;48.81
63652;BME280;49801;37.536;-122.304;2022-09-12T02:25:11;101487.84;;;22.26;49.12
63652;BME280;49801;37.536;-122.304;2022-09-12T02:25:40;101501.16;;;22.29;49.10
63652;BME280;49801;37.536;-122.304;2022-09-12T02:26:12;101493.53;;;22.32;49.38
63652;BME280;49801;37.536;-122.304;2022-09-12T02:26:44;101497.16;;;22.25;49.33
63652;BME280;49801;37.536;-122.304;2022-09-12T02:27:43;101496.56;;;22.23;49.74
63652;BME280;49801;37.536;-122.304;2022-09-12T02:28:11;101493.06;;;22.16;50.16
63652;BME280;49801;37.536;-122.304;2022-09-12T02:28:39;101493.75;;;22.12;50.34
63652;BME280;49801;37.536;-122.304;2022-09-12T02:29:06;101501.41;;;22.09;50.44
63652;BME280;49801;37.536;-122.304;2022-09-12T02:29:32;101495.91;;;22.09;50.12
63652;BME280;49801;37.536;-122.304;2022-09-12T02:29:57;101492.53;;;22.07;49.97
63652;BME280;49801;37.536;-122.304;2022-09-12T02:30:24;101490.84;;;22.06;49.90
63652;BME280;49801;37.536;-122.304;2022-09-12T02:31:53;101499.34;;;22.05;50.20
63652;BME280;49801;37.536;-122.304;2022-09-12T02:32:39;101494.44;;;22.07;50.29
63652;BME280;49801;37.536;-122.304;2022-09-12T02:33:14;101500.41;;;22.04;50.70
63652;BME280;49801;37.536;-122.304;2022-09-12T02:33:45;101499.66;;;21.97;50.80
63652;BME280;49801;37.536;-122.304;2022-09-12T02:34:26;101502.25;;;21.91;51.08
63652;BME280;49801;37.536;-122.304;2022-09-12T02:35:04;101502.84;;;21.94;51.30
63652;BME280;49801;37.536;-122.304;2022-09-12T02:35:34;101498.19;;;21.94;50.87
63652;BME280;49801;37.536;-122.304;2022-09-12T02:36:07;101498.44;;;21.92;51.32
63652;BME280;49801;37.536;-122.304;2022-09-12T02:38:20;101512.91;;;21.88;51.74
63652;BME280;49801;37.536;-122.304;2022-09-12T02:38:49;101514.81;;;21.87;51.85
63652;BME280;49801;37.536;-122.304;2022-09-12T02:39:15;101505.50;;;21.88;51.61
63652;BME280;49801;37.536;-122.304;2022-09-12T02:39:45;101502.56;;;21.83;51.74
63652;BME280;49801;37.536;-122.304;2022-09-12T02:40:11;101515.19;;;21.72;51.98
63652;BME280;49801;37.536;-122.304;2022-09-12T02:40:37;101506.53;;;21.69;52.04
63652;BME280;49801;37.536;-122.304;2022-09-12T02:41:03;101508.91;;;21.65;52.06
63652;BME280;49801;37.536;-122.304;2022-09-12T02:41:29;101509.97;;;21.64;52.23
63652;BME280;49801;37.536;-122.304;2022-09-12T02:41:55;101511.06;;;21.63;52.06
63652;BME280;49801;37.536;-122.304;2022-09-12T02:42:22;101502.78;;;21.63;52.13
63652;BME280;49801;37.536;-122.304;2022-09-12T02:42:48;101506.06;;;21.53;52.35
63652;BME280;49801;37.536;-122.304;2022-09-12T02:43:14;101510.34;;;21.49;52.41
63652;BME280;49801;37.536;-122.304;2022-09-12T02:43:40;101507.38;;;21.51;52.43
63652;BME280;49801;37.536;-122.304;2022-09-12T02:44:06;101513.53;;;21.46;52.95
63652;BME280;49801;37.536;-122.304;2022-09-12T02:44:32;101514.81;;;21.44;52.79
63652;BME280;49801;37.536;-122.304;2022-09-12T02:44:58;101512.28;;;21.42;53.22
63652;BME280;49801;37.536;-122.304;2022-09-12T02:45:24;101511.47;;;21.35;53.21
63652;BME280;49801;37.536;-122.304;2022-09-12T02:45:50;101515.50;;;21.39;52.95
63652;BME280;49801;37.536;-122.304;2022-09-12T02:46:23;101512.28;;;21.42;53.10
63652;BME280;49801;37.536;-122.304;2022-09-12T02:46:51;101517.56;;;21.44;52.98
63652;BME280;49801;37.536;-122.304;2022-09-12T02:47:30;101516.94;;;21.42;53.35
63652;BME280;49801;37.536;-122.304;2022-09-12T02:48:28;101512.75;;;21.39;53.24
63652;BME280;49801;37.536;-122.304;2022-09-12T02:48:56;101519.91;;;21.40;53.26
63652;BME280;49801;37.536;-122.304;2022-09-12T02:49:22;101514.03;;;21.36;53.56
63652;BME280;49801;37.536;-122.304;2022-09-12T02:49:48;101516.56;;;21.38;53.30
63652;BME280;49801;37.536;-122.304;2022-09-12T02:50:14;101516.38;;;21.33;53.90
63652;BME280;49801;37.536;-122.304;2022-09-12T02:50:39;101518.53;;;21.31;53.87
63652;BME280;49801;37.536;-122.304;2022-09-12T02:51:05;101524.66;;;21.33;53.68
63652;BME280;49801;37.536;-122.304;2022-09-12T02:51:31;101520.06;;;21.27;53.81
63652;BME280;49801;37.536;-122.304;2022-09-12T02:51:57;101512.41;;;21.29;54.02
63652;BME280;49801;37.536;-122.304;2022-09-12T02:52:24;101517.47;;;21.32;53.83
63652;BME280;49801;37.536;-122.304;2022-09-12T02:52:50;101519.59;;;21.30;54.12
63652;BME280;49801;37.536;-122.304;2022-09-12T02:53:18;101525.34;;;21.28;54.17
63652;BME280;49801;37.536;-122.304;2022-09-12T02:53:44;101517.47;;;21.32;54.10